sensor_id;sensor_type;location;lat;lon;timestamp;pressure;altitude;pressure_sealevel;temperature
71807;BMP280;59655;42.590;23.364;2023-09-19T00:01:13;91904.75;;;16.83
71807;BMP280;59655;42.590;23.364;2023-09-19T00:03:39;91897.25;;;16.82
71807;BMP280;59655;42.590;23.364;2023-09-19T00:06:07;91900.75;;;16.84
71807;BMP280;59655;42.590;23.364;2023-09-19T00:08:33;91900.06;;;16.84
71807;BMP280;59655;42.590;23.364;2023-09-19T00:10:59;91906.41;;;16.78
71807;BMP280;59655;42.590;23.364;2023-09-19T00:13:32;91897.25;;;16.82
71807;BMP280;59655;42.590;23.364;2023-09-19T00:15:59;91893.72;;;16.79
71807;BMP280;59655;42.590;23.364;2023-09-19T00:18:25;91886.13;;;16.66
71807;BMP280;59655;42.590;23.364;2023-09-19T00:21:00;91895.88;;;16.61
71807;BMP280;59655;42.590;23.364;2023-09-19T00:23:26;91895.88;;;16.61
71807;BMP280;59655;42.590;23.364;2023-09-19T00:25:53;91892.34;;;16.59
71807;BMP280;59655;42.590;23.364;2023-09-19T00:28:22;91889.81;;;16.61
71807;BMP280;59655;42.590;23.364;2023-09-19T00:30:48;91882.47;;;16.51
71807;BMP280;59655;42.590;23.364;2023-09-19T00:33:16;91878.09;;;16.46
71807;BMP280;59655;42.590;23.364;2023-09-19T00:35:49;91873.59;;;16.49
71807;BMP280;59655;42.590;23.364;2023-09-19T00:38:14;91874.56;;;16.44
71807;BMP280;59655;42.590;23.364;2023-09-19T00:40:47;91873.31;;;16.35
71807;BMP280;59655;42.590;23.364;2023-09-19T00:43:13;91876.41;;;16.41
71807;BMP280;59655;42.590;23.364;2023-09-19T00:45:39;91882.75;;;16.17
71807;BMP280;59655;42.590;23.364;2023-09-19T00:48:07;91883.00;;;16.21
71807;BMP280;59655;42.590;23.364;2023-09-19T00:50:34;91871.06;;;16.22
71807;BMP280;59655;42.590;23.364;2023-09-19T00:53:00;91867.81;;;16.23
71807;BMP280;59655;42.590;23.364;2023-09-19T00:55:26;91867.81;;;16.14
71807;BMP280;59655;42.590;23.364;2023-09-19T00:57:56;91866.13;;;16.18
71807;BMP280;59655;42.590;23.364;2023-09-19T01:00:21;91868.09;;;16.18
71807;BMP280;59655;42.590;23.364;2023-09-19T01:02:48;91874.00;;;16.16
71807;BMP280;59655;42.590;23.364;2023-09-19T01:05:13;91867.22;;;16.05
71807;BMP280;59655;42.590;23.364;2023-09-19T01:07:39;91865.81;;;16.04
71807;BMP280;59655;42.590;23.364;2023-09-19T01:10:11;91856.50;;;16.05
71807;BMP280;59655;42.590;23.364;2023-09-19T01:18:21;91867.06;;;15.94
71807;BMP280;59655;42.590;23.364;2023-09-19T01:21:26;91863.53;;;15.81
71807;BMP280;59655;42.590;23.364;2023-09-19T01:29:46;91863.25;;;15.87
71807;BMP280;59655;42.590;23.364;2023-09-19T01:32:21;91860.16;;;15.81
71807;BMP280;59655;42.590;23.364;2023-09-19T01:34:53;91859.13;;;15.76
71807;BMP280;59655;42.590;23.364;2023-09-19T01:37:20;91869.00;;;15.64
71807;BMP280;59655;42.590;23.364;2023-09-19T01:47:24;91859.66;;;15.55
71807;BMP280;59655;42.590;23.364;2023-09-19T01:52:49;91858.06;;;15.43
71807;BMP280;59655;42.590;23.364;2023-09-19T01:55:17;91856.25;;;15.45
71807;BMP280;59655;42.590;23.364;2023-09-19T01:57:57;91852.59;;;15.40
71807;BMP280;59655;42.590;23.364;2023-09-19T02:00:25;91852.00;;;15.42
71807;BMP280;59655;42.590;23.364;2023-09-19T02:02:53;91845.97;;;15.41
71807;BMP280;59655;42.590;23.364;2023-09-19T02:05:24;91849.00;;;15.28
71807;BMP280;59655;42.590;23.364;2023-09-19T02:07:50;91852.06;;;15.25
71807;BMP280;59655;42.590;23.364;2023-09-19T02:10:15;91862.91;;;15.27
71807;BMP280;59655;42.590;23.364;2023-09-19T02:12:42;91862.75;;;15.25
71807;BMP280;59655;42.590;23.364;2023-09-19T02:15:08;91863.50;;;15.25
71807;BMP280;59655;42.590;23.364;2023-09-19T02:17:34;91857.84;;;15.31
71807;BMP280;59655;42.590;23.364;2023-09-19T02:20:00;91861.97;;;15.32
71807;BMP280;59655;42.590;23.364;2023-09-19T02:22:26;91859.88;;;15.30
71807;BMP280;59655;42.590;23.364;2023-09-19T02:24:52;91862.69;;;15.42
71807;BMP280;59655;42.590;23.364;2023-09-19T02:27:19;91868.78;;;15.43
71807;BMP280;59655;42.590;23.364;2023-09-19T02:29:44;91867.38;;;15.41
71807;BMP280;59655;42.590;23.364;2023-09-19T02:32:10;91867.50;;;15.44
71807;BMP280;59655;42.590;23.364;2023-09-19T02:34:36;91863.72;;;15.47
71807;BMP280;59655;42.590;23.364;2023-09-19T02:37:07;91848.78;;;15.44
71807;BMP280;59655;42.590;23.364;2023-09-19T02:39:34;91849.75;;;15.48
71807;BMP280;59655;42.590;23.364;2023-09-19T02:41:59;91844.09;;;15.34
71807;BMP280;59655;42.590;23.364;2023-09-19T02:44:25;91839.31;;;15.33
71807;BMP280;59655;42.590;23.364;2023-09-19T02:46:51;91839.47;;;15.35
71807;BMP280;59655;42.590;23.364;2023-09-19T02:49:16;91834.66;;;15.24
71807;BMP280;59655;42.590;23.364;2023-09-19T02:51:46;91821.97;;;15.24
71807;BMP280;59655;42.590;23.364;2023-09-19T02:54:12;91818.91;;;15.28
71807;BMP280;59655;42.590;23.364;2023-09-19T02:56:38;91823.53;;;15.27
71807;BMP280;59655;42.590;23.364;2023-09-19T02:59:04;91822.66;;;15.25
71807;BMP280;59655;42.590;23.364;2023-09-19T03:01:30;91817.72;;;15.21
71807;BMP280;59655;42.590;23.364;2023-09-19T03:03:55;91819.16;;;15.22
71807;BMP280;59655;42.590;23.364;2023-09-19T03:06:21;91811.13;;;15.22
71807;BMP280;59655;42.590;23.364;2023-09-19T03:08:47;91811.25;;;15.14
71807;BMP280;59655;42.590;23.364;2023-09-19T03:11:14;91805.06;;;15.12
71807;BMP280;59655;42.590;23.364;2023-09-19T03:13:41;91810.66;;;15.06
71807;BMP280;59655;42.590;23.364;2023-09-19T03:16:08;91809.75;;;14.94
71807;BMP280;59655;42.590;23.364;2023-09-19T03:18:36;91802.91;;;15.01
71807;BMP280;59655;42.590;23.364;2023-09-19T03:21:02;91807.19;;;14.96
71807;BMP280;59655;42.590;23.364;2023-09-19T03:23:28;91808.19;;;14.91
71807;BMP280;59655;42.590;23.364;2023-09-19T03:25:56;91805.22;;;14.87
71807;BMP280;59655;42.590;23.364;2023-09-19T03:28:24;91807.75;;;14.85
71807;BMP280;59655;42.590;23.364;2023-09-19T03:31:03;91815.81;;;14.67
71807;BMP280;59655;42.590;23.364;2023-09-19T03:33:29;91817.91;;;14.69
71807;BMP280;59655;42.590;23.364;2023-09-19T03:35:58;91810.97;;;14.83
71807;BMP280;59655;42.590;23.364;2023-09-19T03:38:25;91811.13;;;14.85
71807;BMP280;59655;42.590;23.364;2023-09-19T03:40:50;91819.13;;;14.85
71807;BMP280;59655;42.590;23.364;2023-09-19T03:43:16;91808.44;;;14.85
71807;BMP280;59655;42.590;23.364;2023-09-19T03:45:41;91803.50;;;14.82
71807;BMP280;59655;42.590;23.364;2023-09-19T03:48:10;91810.25;;;14.83
71807;BMP280;59655;42.590;23.364;2023-09-19T03:50:36;91804.34;;;14.84
71807;BMP280;59655;42.590;23.364;2023-09-19T03:53:01;91808.44;;;14.85
71807;BMP280;59655;42.590;23.364;2023-09-19T03:55:27;91807.56;;;14.83
71807;BMP280;59655;42.590;23.364;2023-09-19T03:57:53;91809.56;;;14.82
71807;BMP280;59655;42.590;23.364;2023-09-19T04:00:19;91813.88;;;14.78
71807;BMP280;59655;42.590;23.364;2023-09-19T04:02:47;91820.56;;;14.69
71807;BMP280;59655;42.590;23.364;2023-09-19T04:05:13;91814.00;;;14.70
71807;BMP280;59655;42.590;23.364;2023-09-19T04:07:38;91820.56;;;14.69
71807;BMP280;59655;42.590;23.364;2023-09-19T04:10:04;91825.38;;;14.70
71807;BMP280;59655;42.590;23.364;2023-09-19T04:12:29;91834.22;;;14.73
71807;BMP280;59655;42.590;23.364;2023-09-19T04:14:55;91827.63;;;14.74
71807;BMP280;59655;42.590;23.364;2023-09-19T04:17:20;91833.06;;;14.84
71807;BMP280;59655;42.590;23.364;2023-09-19T04:19:46;91830.50;;;14.86
71807;BMP280;59655;42.590;23.364;2023-09-19T04:22:11;91840.13;;;14.89
71807;BMP280;59655;42.590;23.364;2023-09-19T04:24:38;91844.47;;;14.94
71807;BMP280;59655;42.590;23.364;2023-09-19T04:27:04;91841.81;;;14.94
71807;BMP280;59655;42.590;23.364;2023-09-19T04:29:30;91844.88;;;14.90
71807;BMP280;59655;42.590;23.364;2023-09-19T04:31:56;91846.16;;;14.89
71807;BMP280;59655;42.590;23.364;2023-09-19T04:34:24;91848.97;;;14.91
71807;BMP280;59655;42.590;23.364;2023-09-19T04:36:50;91846.31;;;14.91
71807;BMP280;59655;42.590;23.364;2023-09-19T04:39:15;91844.63;;;14.96
71807;BMP280;59655;42.590;23.364;2023-09-19T04:41:41;91843.53;;;14.99
71807;BMP280;59655;42.590;23.364;2023-09-19T04:44:07;91833.84;;;15.04
71807;BMP280;59655;42.590;23.364;2023-09-19T04:46:33;91831.47;;;15.08
71807;BMP280;59655;42.590;23.364;2023-09-19T04:48:59;91829.81;;;15.12
71807;BMP280;59655;42.590;23.364;2023-09-19T04:51:24;91825.00;;;15.11
71807;BMP280;59655;42.590;23.364;2023-09-19T04:53:52;91835.25;;;15.05
71807;BMP280;59655;42.590;23.364;2023-09-19T04:56:17;91834.16;;;15.08
71807;BMP280;59655;42.590;23.364;2023-09-19T04:58:42;91830.22;;;15.09
71807;BMP280;59655;42.590;23.364;2023-09-19T05:01:08;91822.63;;;15.15
71807;BMP280;59655;42.590;23.364;2023-09-19T05:03:37;91829.00;;;15.19
71807;BMP280;59655;42.590;23.364;2023-09-19T05:06:02;91825.22;;;15.23
71807;BMP280;59655;42.590;23.364;2023-09-19T05:08:29;91823.53;;;15.27
71807;BMP280;59655;42.590;23.364;2023-09-19T05:10:54;91816.13;;;15.35
71807;BMP280;59655;42.590;23.364;2023-09-19T05:13:21;91817.09;;;15.40
71807;BMP280;59655;42.590;23.364;2023-09-19T05:15:48;91811.34;;;15.44
71807;BMP280;59655;42.590;23.364;2023-09-19T05:18:15;91812.19;;;15.46
71807;BMP280;59655;42.590;23.364;2023-09-19T05:20:41;91814.88;;;15.46
71807;BMP280;59655;42.590;23.364;2023-09-19T05:23:07;91808.41;;;15.49
71807;BMP280;59655;42.590;23.364;2023-09-19T05:25:37;91805.44;;;15.55
71807;BMP280;59655;42.590;23.364;2023-09-19T05:41:49;91812.84;;;15.93
71807;BMP280;59655;42.590;23.364;2023-09-19T05:44:14;91804.53;;;15.89
71807;BMP280;59655;42.590;23.364;2023-09-19T05:46:40;91806.19;;;15.94
71807;BMP280;59655;42.590;23.364;2023-09-19T05:49:05;91804.94;;;15.95
71807;BMP280;59655;42.590;23.364;2023-09-19T05:51:31;91814.84;;;16.02
71807;BMP280;59655;42.590;23.364;2023-09-19T05:53:56;91809.75;;;16.06
71807;BMP280;59655;42.590;23.364;2023-09-19T05:56:23;91799.19;;;16.08
71807;BMP280;59655;42.590;23.364;2023-09-19T05:58:49;91802.25;;;16.15
71807;BMP280;59655;42.590;23.364;2023-09-19T06:01:16;91804.66;;;16.20
71807;BMP280;59655;42.590;23.364;2023-09-19T06:03:42;91800.16;;;16.23
71807;BMP280;59655;42.590;23.364;2023-09-19T06:06:07;91789.00;;;16.26
71807;BMP280;59655;42.590;23.364;2023-09-19T06:08:34;91792.84;;;16.33
71807;BMP280;59655;42.590;23.364;2023-09-19T06:11:00;91787.88;;;16.39
71807;BMP280;59655;42.590;23.364;2023-09-19T06:13:28;91788.00;;;16.41
71807;BMP280;59655;42.590;23.364;2023-09-19T06:15:55;91793.22;;;16.49
71807;BMP280;59655;42.590;23.364;2023-09-19T06:18:21;91788.81;;;16.53
71807;BMP280;59655;42.590;23.364;2023-09-19T06:20:47;91785.03;;;16.57
71807;BMP280;59655;42.590;23.364;2023-09-19T06:23:14;91793.47;;;16.63
71807;BMP280;59655;42.590;23.364;2023-09-19T06:25:39;91789.66;;;16.66
71807;BMP280;59655;42.590;23.364;2023-09-19T06:28:05;91790.63;;;16.70
71807;BMP280;59655;42.590;23.364;2023-09-19T06:30:33;91792.88;;;16.74
71807;BMP280;59655;42.590;23.364;2023-09-19T06:33:00;91787.81;;;16.78
71807;BMP280;59655;42.590;23.364;2023-09-19T06:35:26;91782.56;;;16.80
71807;BMP280;59655;42.590;23.364;2023-09-19T06:37:52;91785.66;;;16.86
71807;BMP280;59655;42.590;23.364;2023-09-19T06:40:18;91787.31;;;16.91
71807;BMP280;59655;42.590;23.364;2023-09-19T06:42:47;91787.59;;;16.95
71807;BMP280;59655;42.590;23.364;2023-09-19T06:45:15;91787.16;;;16.99
71807;BMP280;59655;42.590;23.364;2023-09-19T06:47:47;91790.09;;;17.03
71807;BMP280;59655;42.590;23.364;2023-09-19T06:50:22;91793.75;;;17.08
71807;BMP280;59655;42.590;23.364;2023-09-19T06:52:49;91794.72;;;17.12
71807;BMP280;59655;42.590;23.364;2023-09-19T06:55:16;91796.25;;;17.15
71807;BMP280;59655;42.590;23.364;2023-09-19T06:57:42;91796.97;;;17.16
71807;BMP280;59655;42.590;23.364;2023-09-19T07:00:09;91799.91;;;17.20
71807;BMP280;59655;42.590;23.364;2023-09-19T07:02:42;91800.84;;;17.24
71807;BMP280;59655;42.590;23.364;2023-09-19T07:05:07;91807.22;;;17.29
71807;BMP280;59655;42.590;23.364;2023-09-19T07:07:33;91809.44;;;17.33
71807;BMP280;59655;42.590;23.364;2023-09-19T07:10:01;91802.81;;;17.34
71807;BMP280;59655;42.590;23.364;2023-09-19T07:12:26;91812.41;;;17.37
71807;BMP280;59655;42.590;23.364;2023-09-19T07:14:52;91809.25;;;17.40
71807;BMP280;59655;42.590;23.364;2023-09-19T07:17:17;91816.19;;;17.43
71807;BMP280;59655;42.590;23.364;2023-09-19T07:19:45;91813.59;;;17.45
71807;BMP280;59655;42.590;23.364;2023-09-19T07:22:13;91814.56;;;17.50
71807;BMP280;59655;42.590;23.364;2023-09-19T07:24:38;91807.50;;;17.55
71807;BMP280;59655;42.590;23.364;2023-09-19T07:27:04;91817.06;;;17.58
71807;BMP280;59655;42.590;23.364;2023-09-19T07:29:30;91813.94;;;17.61
71807;BMP280;59655;42.590;23.364;2023-09-19T07:31:55;91811.97;;;17.62
71807;BMP280;59655;42.590;23.364;2023-09-19T07:34:21;91814.06;;;17.63
71807;BMP280;59655;42.590;23.364;2023-09-19T07:36:48;91812.81;;;17.64
71807;BMP280;59655;42.590;23.364;2023-09-19T07:39:13;91813.06;;;17.68
71807;BMP280;59655;42.590;23.364;2023-09-19T07:41:39;91824.75;;;17.73
71807;BMP280;59655;42.590;23.364;2023-09-19T07:44:04;91824.84;;;17.75
71807;BMP280;59655;42.590;23.364;2023-09-19T07:46:30;91822.31;;;17.77
71807;BMP280;59655;42.590;23.364;2023-09-19T07:48:56;91826.44;;;17.78
71807;BMP280;59655;42.590;23.364;2023-09-19T07:51:22;91829.91;;;17.81
71807;BMP280;59655;42.590;23.364;2023-09-19T07:53:48;91832.75;;;17.83
71807;BMP280;59655;42.590;23.364;2023-09-19T07:56:13;91829.91;;;17.81
71807;BMP280;59655;42.590;23.364;2023-09-19T07:58:40;91833.00;;;17.87
71807;BMP280;59655;42.590;23.364;2023-09-19T08:01:10;91816.91;;;17.87
71807;BMP280;59655;42.590;23.364;2023-09-19T08:03:36;91825.53;;;17.85
71807;BMP280;59655;42.590;23.364;2023-09-19T08:06:06;91827.16;;;17.90
71807;BMP280;59655;42.590;23.364;2023-09-19T08:08:33;91825.34;;;17.93
71807;BMP280;59655;42.590;23.364;2023-09-19T08:11:03;91829.41;;;17.94
71807;BMP280;59655;42.590;23.364;2023-09-19T08:13:35;91827.44;;;17.94
71807;BMP280;59655;42.590;23.364;2023-09-19T08:16:01;91827.44;;;17.94
71807;BMP280;59655;42.590;23.364;2023-09-19T08:18:26;91826.16;;;17.95
71807;BMP280;59655;42.590;23.364;2023-09-19T08:20:55;91824.88;;;17.97
71807;BMP280;59655;42.590;23.364;2023-09-19T08:23:20;91819.66;;;17.99
71807;BMP280;59655;42.590;23.364;2023-09-19T08:25:47;91816.34;;;18.00
71807;BMP280;59655;42.590;23.364;2023-09-19T08:28:12;91812.97;;;18.00
71807;BMP280;59655;42.590;23.364;2023-09-19T08:30:42;91812.53;;;18.03
71807;BMP280;59655;42.590;23.364;2023-09-19T08:33:08;91808.69;;;18.06
71807;BMP280;59655;42.590;23.364;2023-09-19T08:35:33;91810.19;;;18.09
71807;BMP280;59655;42.590;23.364;2023-09-19T08:38:00;91805.78;;;18.14
71807;BMP280;59655;42.590;23.364;2023-09-19T08:40:30;91800.44;;;18.14
71807;BMP280;59655;42.590;23.364;2023-09-19T08:42:58;91812.13;;;18.18
71807;BMP280;59655;42.590;23.364;2023-09-19T08:45:25;91805.03;;;18.23
71807;BMP280;59655;42.590;23.364;2023-09-19T08:50:43;91816.28;;;18.31
71807;BMP280;59655;42.590;23.364;2023-09-19T08:53:16;91811.69;;;18.34
71807;BMP280;59655;42.590;23.364;2023-09-19T08:55:46;91807.25;;;18.38
71807;BMP280;59655;42.590;23.364;2023-09-19T08:58:16;91800.28;;;18.45
71807;BMP280;59655;42.590;23.364;2023-09-19T09:00:46;91805.22;;;18.49
71807;BMP280;59655;42.590;23.364;2023-09-19T09:03:14;91804.03;;;18.52
71807;BMP280;59655;42.590;23.364;2023-09-19T09:05:45;91796.09;;;18.54
71807;BMP280;59655;42.590;23.364;2023-09-19T09:08:13;91799.00;;;18.58
71807;BMP280;59655;42.590;23.364;2023-09-19T09:10:38;91795.19;;;18.61
71807;BMP280;59655;42.590;23.364;2023-09-19T09:13:06;91800.09;;;18.64
71807;BMP280;59655;42.590;23.364;2023-09-19T09:15:35;91794.81;;;18.67
71807;BMP280;59655;42.590;23.364;2023-09-19T09:18:02;91798.44;;;18.71
71807;BMP280;59655;42.590;23.364;2023-09-19T09:20:28;91790.63;;;18.75
71807;BMP280;59655;42.590;23.364;2023-09-19T09:22:55;91789.47;;;18.78
71807;BMP280;59655;42.590;23.364;2023-09-19T09:25:47;91793.69;;;18.81
71807;BMP280;59655;42.590;23.364;2023-09-19T09:28:19;91788.44;;;18.83
71807;BMP280;59655;42.590;23.364;2023-09-19T09:30:45;91786.09;;;18.89
71807;BMP280;59655;42.590;23.364;2023-09-19T09:33:12;91780.81;;;18.92
71807;BMP280;59655;42.590;23.364;2023-09-19T09:35:51;91774.63;;;19.01
71807;BMP280;59655;42.590;23.364;2023-09-19T09:38:21;91774.63;;;19.01
71807;BMP280;59655;42.590;23.364;2023-09-19T09:40:52;91780.38;;;19.07
71807;BMP280;59655;42.590;23.364;2023-09-19T09:43:34;91771.81;;;19.10
71807;BMP280;59655;42.590;23.364;2023-09-19T09:46:17;91767.84;;;19.11
71807;BMP280;59655;42.590;23.364;2023-09-19T09:48:45;91775.31;;;19.13
71807;BMP280;59655;42.590;23.364;2023-09-19T09:51:40;91767.38;;;19.15
71807;BMP280;59655;42.590;23.364;2023-09-19T09:54:16;91767.50;;;19.17
71807;BMP280;59655;42.590;23.364;2023-09-19T09:56:58;91769.94;;;19.25
71807;BMP280;59655;42.590;23.364;2023-09-19T10:02:14;91757.28;;;19.39
71807;BMP280;59655;42.590;23.364;2023-09-19T10:04:45;91755.50;;;19.44
71807;BMP280;59655;42.590;23.364;2023-09-19T10:07:30;91757.59;;;19.45
71807;BMP280;59655;42.590;23.364;2023-09-19T10:10:15;91762.41;;;19.47
71807;BMP280;59655;42.590;23.364;2023-09-19T10:12:47;91756.56;;;19.50
71807;BMP280;59655;42.590;23.364;2023-09-19T10:15:15;91755.13;;;19.49
71807;BMP280;59655;42.590;23.364;2023-09-19T10:17:43;91760.06;;;19.53
71807;BMP280;59655;42.590;23.364;2023-09-19T10:20:12;91756.91;;;19.56
71807;BMP280;59655;42.590;23.364;2023-09-19T10:22:48;91760.38;;;19.59
71807;BMP280;59655;42.590;23.364;2023-09-19T10:25:26;91761.81;;;19.60
71807;BMP280;59655;42.590;23.364;2023-09-19T10:27:54;91761.28;;;19.64
71807;BMP280;59655;42.590;23.364;2023-09-19T10:30:22;91752.63;;;19.65
71807;BMP280;59655;42.590;23.364;2023-09-19T10:32:48;91754.75;;;19.67
71807;BMP280;59655;42.590;23.364;2023-09-19T10:35:19;91757.66;;;19.71
71807;BMP280;59655;42.590;23.364;2023-09-19T10:37:47;91748.41;;;19.74
71807;BMP280;59655;42.590;23.364;2023-09-19T10:40:16;91758.09;;;19.79
71807;BMP280;59655;42.590;23.364;2023-09-19T10:42:44;91744.97;;;19.85
71807;BMP280;59655;42.590;23.364;2023-09-19T10:45:12;91738.97;;;19.87
71807;BMP280;59655;42.590;23.364;2023-09-19T10:47:39;91747.16;;;19.89
71807;BMP280;59655;42.590;23.364;2023-09-19T10:50:06;91745.19;;;19.89
71807;BMP280;59655;42.590;23.364;2023-09-19T10:52:33;91746.56;;;19.90
71807;BMP280;59655;42.590;23.364;2023-09-19T10:55:03;91744.72;;;19.93
71807;BMP280;59655;42.590;23.364;2023-09-19T10:57:30;91742.81;;;19.95
71807;BMP280;59655;42.590;23.364;2023-09-19T11:00:01;91742.22;;;19.97
71807;BMP280;59655;42.590;23.364;2023-09-19T11:05:34;91742.53;;;20.03
71807;BMP280;59655;42.590;23.364;2023-09-19T11:08:00;91731.97;;;20.07
71807;BMP280;59655;42.590;23.364;2023-09-19T11:10:51;91737.59;;;20.11
71807;BMP280;59655;42.590;23.364;2023-09-19T11:13:26;91736.47;;;20.16
71807;BMP280;59655;42.590;23.364;2023-09-19T11:26:50;91726.66;;;20.35
71807;BMP280;59655;42.590;23.364;2023-09-19T11:29:27;91729.44;;;20.37
71807;BMP280;59655;42.590;23.364;2023-09-19T11:31:55;91726.84;;;20.39
71807;BMP280;59655;42.590;23.364;2023-09-19T11:34:37;91714.66;;;20.38
71807;BMP280;59655;42.590;23.364;2023-09-19T11:39:37;91711.72;;;20.45
71807;BMP280;59655;42.590;23.364;2023-09-19T11:42:41;91718.31;;;20.56
71807;BMP280;59655;42.590;23.364;2023-09-19T11:45:07;91712.31;;;20.58
71807;BMP280;59655;42.590;23.364;2023-09-19T11:47:33;91705.22;;;20.64
71807;BMP280;59655;42.590;23.364;2023-09-19T11:50:00;91699.81;;;20.64
71807;BMP280;59655;42.590;23.364;2023-09-19T11:52:27;91698.03;;;20.69
71807;BMP280;59655;42.590;23.364;2023-09-19T11:54:57;91690.50;;;20.67
71807;BMP280;59655;42.590;23.364;2023-09-19T11:57:25;91689.25;;;20.68
71807;BMP280;59655;42.590;23.364;2023-09-19T11:59:51;91691.25;;;20.68
71807;BMP280;59655;42.590;23.364;2023-09-19T12:02:32;91686.47;;;20.66
71807;BMP280;59655;42.590;23.364;2023-09-19T12:05:02;91685.75;;;20.66
71807;BMP280;59655;42.590;23.364;2023-09-19T12:07:28;91683.84;;;20.68
71807;BMP280;59655;42.590;23.364;2023-09-19T12:10:04;91681.53;;;20.76
71807;BMP280;59655;42.590;23.364;2023-09-19T12:12:30;91684.72;;;20.87
71807;BMP280;59655;42.590;23.364;2023-09-19T12:14:58;91683.22;;;20.97
71807;BMP280;59655;42.590;23.364;2023-09-19T12:17:38;91681.41;;;21.02
71807;BMP280;59655;42.590;23.364;2023-09-19T12:20:06;91683.00;;;21.07
71807;BMP280;59655;42.590;23.364;2023-09-19T12:22:46;91671.31;;;21.16
71807;BMP280;59655;42.590;23.364;2023-09-19T12:25:13;91673.09;;;21.25
71807;BMP280;59655;42.590;23.364;2023-09-19T12:27:49;91667.38;;;21.33
71807;BMP280;59655;42.590;23.364;2023-09-19T12:30:27;91673.19;;;21.27
71807;BMP280;59655;42.590;23.364;2023-09-19T12:32:53;91661.59;;;21.25
71807;BMP280;59655;42.590;23.364;2023-09-19T12:35:27;91669.03;;;21.40
71807;BMP280;59655;42.590;23.364;2023-09-19T12:37:59;91674.81;;;21.78
71807;BMP280;59655;42.590;23.364;2023-09-19T12:40:26;91663.88;;;22.21
71807;BMP280;59655;42.590;23.364;2023-09-19T12:42:54;91659.50;;;22.80
71807;BMP280;59655;42.590;23.364;2023-09-19T12:45:31;91661.00;;;23.72
71807;BMP280;59655;42.590;23.364;2023-09-19T12:48:21;91656.97;;;25.14
71807;BMP280;59655;42.590;23.364;2023-09-19T12:51:08;91645.84;;;25.28
71807;BMP280;59655;42.590;23.364;2023-09-19T12:53:37;91664.03;;;26.45
71807;BMP280;59655;42.590;23.364;2023-09-19T12:56:08;91656.25;;;28.18
71807;BMP280;59655;42.590;23.364;2023-09-19T12:58:55;91662.00;;;29.19
71807;BMP280;59655;42.590;23.364;2023-09-19T13:01:23;91658.59;;;29.71
71807;BMP280;59655;42.590;23.364;2023-09-19T13:04:15;91664.09;;;30.34
71807;BMP280;59655;42.590;23.364;2023-09-19T13:06:45;91666.28;;;30.50
71807;BMP280;59655;42.590;23.364;2023-09-19T13:09:11;91652.72;;;30.66
71807;BMP280;59655;42.590;23.364;2023-09-19T13:11:38;91657.06;;;30.91
71807;BMP280;59655;42.590;23.364;2023-09-19T13:14:21;91656.34;;;30.89
71807;BMP280;59655;42.590;23.364;2023-09-19T13:16:56;91648.78;;;30.85
71807;BMP280;59655;42.590;23.364;2023-09-19T13:19:48;91652.94;;;30.95
71807;BMP280;59655;42.590;23.364;2023-09-19T13:25:04;91646.13;;;31.04
71807;BMP280;59655;42.590;23.364;2023-09-19T13:27:32;91640.72;;;31.14
71807;BMP280;59655;42.590;23.364;2023-09-19T13:29:58;91634.53;;;31.09
71807;BMP280;59655;42.590;23.364;2023-09-19T13:32:23;91637.91;;;31.04
71807;BMP280;59655;42.590;23.364;2023-09-19T13:34:49;91633.06;;;30.94
71807;BMP280;59655;42.590;23.364;2023-09-19T13:37:16;91630.97;;;30.88
71807;BMP280;59655;42.590;23.364;2023-09-19T13:39:43;91633.56;;;30.70
71807;BMP280;59655;42.590;23.364;2023-09-19T13:42:13;91622.28;;;30.33
71807;BMP280;59655;42.590;23.364;2023-09-19T13:44:38;91621.41;;;30.10
71807;BMP280;59655;42.590;23.364;2023-09-19T13:47:06;91624.50;;;29.80
71807;BMP280;59655;42.590;23.364;2023-09-19T13:49:35;91618.69;;;29.52
71807;BMP280;59655;42.590;23.364;2023-09-19T13:52:01;91616.13;;;29.14
71807;BMP280;59655;42.590;23.364;2023-09-19T13:54:29;91620.44;;;28.80
71807;BMP280;59655;42.590;23.364;2023-09-19T13:56:55;91615.75;;;28.45
71807;BMP280;59655;42.590;23.364;2023-09-19T13:59:20;91619.25;;;28.09
71807;BMP280;59655;42.590;23.364;2023-09-19T14:01:49;91614.28;;;27.63
71807;BMP280;59655;42.590;23.364;2023-09-19T14:04:15;91618.13;;;27.52
71807;BMP280;59655;42.590;23.364;2023-09-19T14:06:42;91614.97;;;27.32
71807;BMP280;59655;42.590;23.364;2023-09-19T14:09:08;91610.88;;;27.01
71807;BMP280;59655;42.590;23.364;2023-09-19T14:11:35;91606.94;;;26.78
71807;BMP280;59655;42.590;23.364;2023-09-19T14:14:01;91611.72;;;26.49
71807;BMP280;59655;42.590;23.364;2023-09-19T14:16:26;91616.25;;;26.40
71807;BMP280;59655;42.590;23.364;2023-09-19T14:18:55;91617.84;;;26.21
71807;BMP280;59655;42.590;23.364;2023-09-19T14:21:20;91625.81;;;26.13
71807;BMP280;59655;42.590;23.364;2023-09-19T14:23:46;91626.72;;;25.96
71807;BMP280;59655;42.590;23.364;2023-09-19T14:26:12;91623.63;;;25.84
71807;BMP280;59655;42.590;23.364;2023-09-19T14:28:37;91616.56;;;25.75
71807;BMP280;59655;42.590;23.364;2023-09-19T14:31:08;91614.44;;;25.71
71807;BMP280;59655;42.590;23.364;2023-09-19T14:33:34;91606.69;;;25.61
71807;BMP280;59655;42.590;23.364;2023-09-19T14:36:04;91609.28;;;25.57
71807;BMP280;59655;42.590;23.364;2023-09-19T14:38:32;91608.97;;;25.45
71807;BMP280;59655;42.590;23.364;2023-09-19T14:41:02;91603.16;;;25.33
71807;BMP280;59655;42.590;23.364;2023-09-19T14:43:28;91613.72;;;25.23
71807;BMP280;59655;42.590;23.364;2023-09-19T14:48:30;91607.69;;;25.02
71807;BMP280;59655;42.590;23.364;2023-09-19T14:51:01;91608.81;;;24.95
71807;BMP280;59655;42.590;23.364;2023-09-19T14:53:27;91616.63;;;24.83
71807;BMP280;59655;42.590;23.364;2023-09-19T14:55:53;91608.09;;;24.73
71807;BMP280;59655;42.590;23.364;2023-09-19T14:58:20;91607.19;;;24.64
71807;BMP280;59655;42.590;23.364;2023-09-19T15:00:46;91610.81;;;24.51
71807;BMP280;59655;42.590;23.364;2023-09-19T15:03:12;91604.38;;;24.40
71807;BMP280;59655;42.590;23.364;2023-09-19T15:05:38;91599.84;;;24.27
71807;BMP280;59655;42.590;23.364;2023-09-19T15:08:04;91599.69;;;24.23